createdAt,value
2023-03-07T00:01:56.844Z,-0.40
2023-03-07T00:04:23.800Z,-0.30
2023-03-07T00:06:50.571Z,-0.30
2023-03-07T00:09:19.878Z,-0.30
2023-03-07T00:11:46.681Z,-0.40
2023-03-07T00:14:13.732Z,-0.40
2023-03-07T00:16:40.467Z,-0.30
2023-03-07T00:19:07.806Z,-0.30
2023-03-07T00:21:34.605Z,-0.30
2023-03-07T00:24:01.385Z,-0.30
2023-03-07T00:26:28.516Z,-0.30
2023-03-07T00:28:58.767Z,-0.40
2023-03-07T00:31:25.608Z,-0.40
2023-03-07T00:33:52.472Z,-0.50
2023-03-07T00:36:21.378Z,-0.40
2023-03-07T00:38:48.687Z,-0.40
2023-03-07T00:41:18.402Z,-0.30
2023-03-07T00:43:45.334Z,-0.30
2023-03-07T00:46:12.043Z,-0.30
2023-03-07T00:48:40.006Z,-0.30
2023-03-07T00:51:09.902Z,-0.30
2023-03-07T00:53:37.208Z,-0.40
2023-03-07T00:56:07.125Z,-0.40
2023-03-07T00:58:36.299Z,-0.40
2023-03-07T01:01:05.554Z,-0.40
2023-03-07T01:03:33.073Z,-0.40
2023-03-07T01:06:04.214Z,-0.40
2023-03-07T01:08:33.965Z,-0.30
2023-03-07T01:11:02.695Z,-0.30
2023-03-07T01:13:30.140Z,-0.20
2023-03-07T01:16:06.436Z,-0.20
2023-03-07T01:18:33.232Z,-0.30
2023-03-07T01:20:59.995Z,-0.30
2023-03-07T01:23:26.809Z,-0.20
2023-03-07T01:25:53.597Z,-0.20
2023-03-07T01:28:20.342Z,-0.20
2023-03-07T01:30:57.907Z,-0.30
2023-03-07T01:33:24.644Z,-0.30
2023-03-07T01:35:51.566Z,-0.30
2023-03-07T01:38:18.481Z,-0.40
2023-03-07T01:40:45.300Z,-0.50
2023-03-07T01:43:29.654Z,-0.40
2023-03-07T01:46:14.890Z,-0.40
2023-03-07T01:48:42.291Z,-0.40
2023-03-07T01:51:09.223Z,-0.40
2023-03-07T01:53:36.009Z,-0.40
2023-03-07T01:56:03.133Z,-0.40
2023-03-07T01:58:30.251Z,-0.30
2023-03-07T02:00:57.073Z,-0.20
2023-03-07T02:03:35.405Z,-0.20
2023-03-07T02:06:07.795Z,-0.20
2023-03-07T02:08:37.073Z,-0.10
2023-03-07T02:11:04.549Z,-0.10
2023-03-07T02:13:31.325Z,-0.10
2023-03-07T02:16:01.864Z,-0.10
2023-03-07T02:18:31.967Z,-0.10
2023-03-07T02:21:36.594Z,-0.10
2023-03-07T02:24:40.424Z,-0.10
2023-03-07T02:27:07.302Z,-0.10
2023-03-07T02:29:34.097Z,-0.10
2023-03-07T02:32:01.257Z,-0.10
2023-03-07T02:34:30.435Z,-0.10
2023-03-07T02:37:01.988Z,0.00
2023-03-07T02:39:29.566Z,0.00
2023-03-07T02:42:00.541Z,0.00
2023-03-07T02:44:27.327Z,0.10
2023-03-07T02:46:54.126Z,0.10
2023-03-07T02:49:20.914Z,0.10
2023-03-07T02:51:47.949Z,0.20
2023-03-07T02:54:14.857Z,0.20
2023-03-07T02:56:42.449Z,0.20
2023-03-07T02:59:09.244Z,0.20
2023-03-07T03:01:36.397Z,0.20
2023-03-07T03:04:03.228Z,0.30
2023-03-07T03:06:30.029Z,0.30
2023-03-07T03:08:56.765Z,0.30
2023-03-07T03:11:23.562Z,0.30
2023-03-07T03:13:50.304Z,0.30
2023-03-07T03:16:16.995Z,0.30
2023-03-07T03:18:43.781Z,0.30
2023-03-07T03:21:11.664Z,0.30
2023-03-07T03:23:38.849Z,0.40
2023-03-07T03:26:07.647Z,0.30
2023-03-07T03:28:35.990Z,0.40
2023-03-07T03:31:06.768Z,0.40
2023-03-07T03:33:33.950Z,0.40
2023-03-07T03:36:09.790Z,0.40
2023-03-07T03:38:37.002Z,0.40
2023-03-07T03:41:08.441Z,0.40
2023-03-07T03:43:35.800Z,0.30
2023-03-07T03:46:03.271Z,0.30
2023-03-07T03:48:30.615Z,0.30
2023-03-07T03:51:05.394Z,0.30
2023-03-07T03:53:34.013Z,0.30
2023-03-07T03:56:15.865Z,0.30
2023-03-07T03:58:43.320Z,0.30
2023-03-07T04:01:12.261Z,0.30
2023-03-07T04:03:50.568Z,0.30
2023-03-07T04:06:22.826Z,0.30
2023-03-07T04:08:51.750Z,0.30
2023-03-07T04:11:19.745Z,0.30
2023-03-07T04:13:46.849Z,0.40
2023-03-07T04:16:13.798Z,0.40
2023-03-07T04:18:40.694Z,0.40
2023-03-07T04:21:07.726Z,0.40
2023-03-07T04:23:35.152Z,0.50
2023-03-07T04:26:03.765Z,0.40
2023-03-07T04:28:40.224Z,0.50
2023-03-07T04:31:06.978Z,0.50
2023-03-07T04:33:33.762Z,0.50
2023-03-07T04:36:00.693Z,0.50
2023-03-07T04:38:27.502Z,0.50
2023-03-07T04:40:54.430Z,0.60
2023-03-07T04:43:21.236Z,0.60
2023-03-07T04:45:48.139Z,0.60
2023-03-07T04:48:15.072Z,0.60
2023-03-07T04:50:41.920Z,0.60
2023-03-07T04:53:08.712Z,0.60
2023-03-07T04:55:35.488Z,0.60
2023-03-07T04:58:02.251Z,0.50
2023-03-07T05:00:29.013Z,0.60
2023-03-07T05:02:58.881Z,0.50
2023-03-07T05:05:25.722Z,0.50
2023-03-07T05:07:52.387Z,0.40
2023-03-07T05:10:19.182Z,0.30
2023-03-07T05:12:46.216Z,0.20
2023-03-07T05:15:13.092Z,0.20
2023-03-07T05:17:39.990Z,0.20
2023-03-07T05:20:10.563Z,0.20
2023-03-07T05:22:37.360Z,0.10
2023-03-07T05:25:04.605Z,0.10
2023-03-07T05:27:31.395Z,0.10
2023-03-07T05:29:58.133Z,0.10
2023-03-07T05:32:27.623Z,0.10
2023-03-07T05:34:54.532Z,0.10
2023-03-07T05:37:21.379Z,0.10
2023-03-07T05:39:48.164Z,0.10
2023-03-07T05:42:14.962Z,0.10
2023-03-07T05:44:42.350Z,0.10
2023-03-07T05:47:09.247Z,0.10
2023-03-07T05:49:36.086Z,0.10
2023-03-07T05:52:02.932Z,0.10
2023-03-07T05:54:29.739Z,0.10
2023-03-07T05:56:56.530Z,0.20
2023-03-07T05:59:23.203Z,0.20
2023-03-07T06:01:49.903Z,0.10
2023-03-07T06:04:16.628Z,0.10
2023-03-07T06:06:43.373Z,0.20
2023-03-07T06:09:10.165Z,0.20
2023-03-07T06:11:37.028Z,0.20
2023-03-07T06:14:03.984Z,0.20
2023-03-07T06:16:30.705Z,0.20
2023-03-07T06:18:57.459Z,0.30
2023-03-07T06:21:24.334Z,0.30
2023-03-07T06:23:51.100Z,0.30
2023-03-07T06:26:18.001Z,0.30
2023-03-07T06:28:44.823Z,0.40
2023-03-07T06:31:14.396Z,0.40
2023-03-07T06:33:42.072Z,0.40
2023-03-07T06:36:17.193Z,0.40
2023-03-07T06:38:44.559Z,0.50
2023-03-07T06:41:11.551Z,0.50
2023-03-07T06:43:38.899Z,0.50
2023-03-07T06:46:06.810Z,0.50
2023-03-07T06:48:33.754Z,0.50
2023-03-07T06:51:10.249Z,0.60
2023-03-07T06:53:37.182Z,0.60
2023-03-07T06:56:04.227Z,0.60
2023-03-07T06:58:33.982Z,0.60
2023-03-07T07:01:00.715Z,0.70
2023-03-07T07:03:27.573Z,0.70
2023-03-07T07:05:54.428Z,0.80
2023-03-07T07:08:21.300Z,0.80
2023-03-07T07:10:48.234Z,0.80
2023-03-07T07:13:15.187Z,0.80
2023-03-07T07:15:42.113Z,0.90
2023-03-07T07:18:12.039Z,0.90
2023-03-07T07:20:38.827Z,0.90
2023-03-07T07:23:05.618Z,0.90
2023-03-07T07:25:32.466Z,1.00
2023-03-07T07:27:59.305Z,1.00
2023-03-07T07:30:26.108Z,1.10
2023-03-07T07:32:53.050Z,1.10
2023-03-07T07:35:19.885Z,1.10
2023-03-07T07:37:49.707Z,1.10
2023-03-07T07:40:18.357Z,1.20
2023-03-07T07:42:48.755Z,1.20
2023-03-07T07:45:15.612Z,1.30
2023-03-07T07:47:44.030Z,1.30
2023-03-07T07:50:12.932Z,1.40
2023-03-07T07:52:39.712Z,1.50
2023-03-07T07:55:06.668Z,1.50
2023-03-07T07:57:33.456Z,1.50
2023-03-07T08:00:00.183Z,1.50
2023-03-07T08:02:27.290Z,1.50
2023-03-07T08:04:56.354Z,1.50
2023-03-07T08:07:23.182Z,1.50
2023-03-07T08:09:50.024Z,1.60
2023-03-07T08:12:16.855Z,1.60
2023-03-07T08:14:43.602Z,1.60
2023-03-07T08:17:12.488Z,1.60
2023-03-07T08:19:39.346Z,1.70
2023-03-07T08:22:06.149Z,1.70
2023-03-07T08:24:40.940Z,1.80
2023-03-07T08:27:08.343Z,1.80
2023-03-07T08:29:35.539Z,1.80
2023-03-07T08:32:02.402Z,1.80
2023-03-07T08:34:29.349Z,1.70
2023-03-07T08:36:56.263Z,1.70
2023-03-07T08:39:23.057Z,1.70
2023-03-07T08:41:49.852Z,1.70
2023-03-07T08:44:16.643Z,1.70
2023-03-07T08:46:43.472Z,1.80
2023-03-07T08:49:10.301Z,1.90
2023-03-07T08:51:38.985Z,1.90
2023-03-07T08:54:07.115Z,2.10
2023-03-07T08:56:34.172Z,2.10
2023-03-07T08:59:01.006Z,2.10
2023-03-07T09:01:28.231Z,2.20
2023-03-07T09:03:54.983Z,2.30
2023-03-07T09:06:41.877Z,2.30
2023-03-07T09:09:11.604Z,2.40
2023-03-07T09:11:39.170Z,2.50
2023-03-07T09:14:17.464Z,2.60
2023-03-07T09:16:47.288Z,2.70
2023-03-07T09:19:14.472Z,2.80
2023-03-07T09:21:41.264Z,2.80
2023-03-07T09:24:11.025Z,2.90
2023-03-07T09:26:52.331Z,3.00
2023-03-07T09:29:19.535Z,3.00
2023-03-07T09:31:46.449Z,3.00
2023-03-07T09:34:18.358Z,3.00
2023-03-07T09:36:52.585Z,2.90
2023-03-07T09:39:20.656Z,2.90
2023-03-07T09:42:03.349Z,2.90
2023-03-07T09:44:58.905Z,2.90
2023-03-07T09:47:30.747Z,2.90
2023-03-07T09:50:00.657Z,3.00
2023-03-07T09:52:35.253Z,3.00
2023-03-07T09:55:19.522Z,3.20
2023-03-07T09:57:54.165Z,3.20
2023-03-07T10:00:35.623Z,3.30
2023-03-07T10:03:33.616Z,3.30
2023-03-07T10:06:10.702Z,3.40
2023-03-07T10:08:37.940Z,3.40
2023-03-07T10:11:32.398Z,3.50
2023-03-07T10:14:05.392Z,3.60
2023-03-07T10:16:50.512Z,3.70
2023-03-07T10:19:25.121Z,3.80
2023-03-07T10:22:17.810Z,3.80
2023-03-07T10:24:50.857Z,3.80
2023-03-07T10:27:25.813Z,3.70
2023-03-07T10:29:55.408Z,3.70
2023-03-07T10:32:46.620Z,3.70
2023-03-07T10:35:18.683Z,3.60
2023-03-07T10:38:20.151Z,3.60
2023-03-07T10:40:55.844Z,3.60
2023-03-07T10:43:31.454Z,3.50
2023-03-07T10:46:24.651Z,3.40
2023-03-07T10:49:11.064Z,3.30
2023-03-07T10:52:08.227Z,3.00
2023-03-07T10:54:37.375Z,2.80
2023-03-07T10:57:07.101Z,2.70
2023-03-07T10:59:34.666Z,2.50
2023-03-07T11:02:23.421Z,2.50
2023-03-07T11:04:55.662Z,2.40
2023-03-07T11:07:33.674Z,2.50
2023-03-07T11:10:21.653Z,2.40
2023-03-07T11:12:49.010Z,2.40
2023-03-07T11:15:21.934Z,2.40
2023-03-07T11:17:51.833Z,2.40
2023-03-07T11:20:29.152Z,2.50
2023-03-07T11:23:23.287Z,2.50
2023-03-07T11:25:51.522Z,2.60
2023-03-07T11:28:37.409Z,2.60
2023-03-07T11:31:47.962Z,2.60
2023-03-07T11:34:41.070Z,2.60
2023-03-07T11:37:32.681Z,2.60
2023-03-07T11:40:25.056Z,2.50
2023-03-07T11:43:04.972Z,2.50
2023-03-07T11:45:40.287Z,2.50
2023-03-07T11:48:34.294Z,2.50
2023-03-07T11:51:04.815Z,2.60
2023-03-07T11:54:01.625Z,2.60
2023-03-07T11:56:34.873Z,2.70
2023-03-07T11:59:26.394Z,2.70
2023-03-07T12:02:03.772Z,2.70
2023-03-07T12:04:39.690Z,2.70
2023-03-07T12:07:31.461Z,2.60
2023-03-07T12:10:15.763Z,2.60
2023-03-07T12:13:03.994Z,2.50
2023-03-07T12:15:53.075Z,2.50
2023-03-07T12:18:35.740Z,2.40
2023-03-07T12:21:17.729Z,2.40
2023-03-07T12:23:49.548Z,2.30
2023-03-07T12:26:25.573Z,2.30
2023-03-07T12:29:13.110Z,2.30
2023-03-07T12:31:47.672Z,2.30
2023-03-07T12:34:53.598Z,2.30
2023-03-07T12:37:28.390Z,2.20
2023-03-07T12:40:43.185Z,2.10
2023-03-07T12:43:25.849Z,2.00
2023-03-07T12:46:36.097Z,1.80
2023-03-07T12:49:13.623Z,1.80
2023-03-07T12:51:47.724Z,1.70
2023-03-07T12:54:25.822Z,1.80
2023-03-07T12:57:19.047Z,1.80
2023-03-07T12:59:46.011Z,1.80
2023-03-07T13:02:25.006Z,1.80
2023-03-07T13:04:52.206Z,1.80
2023-03-07T13:07:27.097Z,1.70
2023-03-07T13:09:56.974Z,1.80
2023-03-07T13:12:28.331Z,1.70
2023-03-07T13:33:40.313Z,1.40
2023-03-07T13:39:40.248Z,1.50
2023-03-07T13:45:40.945Z,1.50
2023-03-07T13:48:22.902Z,1.50
2023-03-07T14:05:36.612Z,1.40
2023-03-07T14:12:35.467Z,1.30
2023-03-07T14:18:34.994Z,1.50
2023-03-07T14:21:56.638Z,1.50
2023-03-07T15:32:06.596Z,1.90
2023-03-07T15:35:01.654Z,1.80
2023-03-07T15:37:38.284Z,1.80
2023-03-07T15:40:12.498Z,1.90
2023-03-07T15:42:54.896Z,1.80
2023-03-07T15:45:39.233Z,1.90
2023-03-07T15:48:18.935Z,1.80
2023-03-07T15:50:58.394Z,1.80
2023-03-07T15:53:39.552Z,1.90
2023-03-07T15:56:34.117Z,1.80
2023-03-07T15:59:20.691Z,1.80
2023-03-07T16:01:47.499Z,1.80
2023-03-07T16:04:35.637Z,1.80
2023-03-07T16:07:02.599Z,1.80
2023-03-07T16:09:34.092Z,1.90
2023-03-07T16:13:38.469Z,1.80
2023-03-07T16:15:32.922Z,1.90
2023-03-07T16:18:28.779Z,1.90
2023-03-07T16:21:00.312Z,1.90
2023-03-07T16:23:36.648Z,1.80
2023-03-07T16:26:08.540Z,1.80
2023-03-07T16:29:30.790Z,1.80
2023-03-07T16:31:36.870Z,1.90
2023-03-07T16:37:48.238Z,1.80
2023-03-07T16:40:16.127Z,1.80
2023-03-07T16:43:00.125Z,1.80
2023-03-07T16:45:43.892Z,1.80
2023-03-07T16:48:36.313Z,1.70
2023-03-07T16:51:17.272Z,1.70
2023-03-07T16:53:50.814Z,1.70
2023-03-07T16:56:30.139Z,1.70
2023-03-07T16:58:57.873Z,1.70
2023-03-07T17:01:24.666Z,1.70
2023-03-07T17:03:51.520Z,1.70
2023-03-07T17:06:21.645Z,1.70
2023-03-07T17:08:50.567Z,1.70
2023-03-07T17:11:24.162Z,1.70
2023-03-07T17:13:57.416Z,1.70
2023-03-07T17:16:28.243Z,1.70
2023-03-07T17:18:55.060Z,1.70
2023-03-07T17:21:24.024Z,1.70
2023-03-07T17:23:50.791Z,1.60
2023-03-07T17:26:26.161Z,1.60
2023-03-07T17:28:53.930Z,1.70
2023-03-07T17:31:20.896Z,1.70
2023-03-07T17:33:47.821Z,1.70
2023-03-07T17:36:14.661Z,1.70
2023-03-07T17:38:41.555Z,1.60
2023-03-07T17:41:08.298Z,1.60
2023-03-07T17:43:35.189Z,1.60
2023-03-07T17:46:07.409Z,1.60
2023-03-07T17:48:34.251Z,1.60
2023-03-07T17:51:35.758Z,1.70
2023-03-07T17:54:03.340Z,1.60
2023-03-07T17:56:30.569Z,1.60
2023-03-07T17:58:59.667Z,1.60
2023-03-07T18:01:29.359Z,1.60
2023-03-07T18:03:57.695Z,1.50
2023-03-07T18:06:25.410Z,1.50
2023-03-07T18:08:52.578Z,1.50
2023-03-07T18:11:20.353Z,1.60
2023-03-07T18:13:47.942Z,1.60
2023-03-07T18:16:15.360Z,1.60
2023-03-07T18:18:57.811Z,1.50
2023-03-07T18:21:25.911Z,1.50
2023-03-07T18:23:53.225Z,1.50
2023-03-07T18:26:21.313Z,1.50
2023-03-07T18:28:49.724Z,1.50
2023-03-07T18:31:17.776Z,1.40
2023-03-07T18:33:44.651Z,1.40
2023-03-07T18:36:14.330Z,1.40
2023-03-07T18:38:41.737Z,1.40
2023-03-07T18:41:14.025Z,1.40
2023-03-07T18:43:41.564Z,1.40
2023-03-07T18:46:12.143Z,1.50
2023-03-07T18:48:39.103Z,1.40
2023-03-07T18:51:08.561Z,1.40
2023-03-07T18:53:36.977Z,1.40
2023-03-07T18:56:14.473Z,1.40
2023-03-07T18:58:42.737Z,1.40
2023-03-07T19:01:25.308Z,1.30
2023-03-07T19:03:53.468Z,1.40
2023-03-07T19:06:22.915Z,1.30
2023-03-07T19:08:50.190Z,1.30
2023-03-07T19:11:18.940Z,1.30
2023-03-07T19:13:45.911Z,1.40
2023-03-07T19:16:15.772Z,1.30
2023-03-07T19:18:43.922Z,1.30
2023-03-07T19:21:13.614Z,1.30
2023-03-07T19:23:40.890Z,1.30
2023-03-07T19:26:10.881Z,1.30
2023-03-07T19:28:38.097Z,1.30
2023-03-07T19:31:19.308Z,1.30
2023-03-07T19:33:47.801Z,1.30
2023-03-07T19:36:17.531Z,1.30
2023-03-07T19:38:44.313Z,1.30
2023-03-07T19:41:15.628Z,1.30
2023-03-07T19:43:43.118Z,1.20
2023-03-07T19:46:13.037Z,1.20
2023-03-07T19:48:40.906Z,1.20
2023-03-07T19:51:15.752Z,1.20
2023-03-07T19:53:43.937Z,1.20
2023-03-07T19:56:22.322Z,1.20
2023-03-07T19:58:49.929Z,1.20
2023-03-07T20:01:19.463Z,1.20
2023-03-07T20:03:49.255Z,1.10
2023-03-07T20:06:25.846Z,1.20
2023-03-07T20:08:54.614Z,1.10
2023-03-07T20:11:27.459Z,1.20
2023-03-07T20:13:55.822Z,1.20
2023-03-07T20:16:23.431Z,1.20
2023-03-07T20:18:51.901Z,1.10
2023-03-07T20:21:19.750Z,1.20
2023-03-07T20:23:48.181Z,1.10
2023-03-07T20:26:17.950Z,1.10
2023-03-07T20:28:45.531Z,1.10
2023-03-07T20:31:13.572Z,1.10
2023-03-07T20:33:43.363Z,1.10
2023-03-07T20:36:20.917Z,1.10
2023-03-07T20:38:51.480Z,1.10
2023-03-07T20:41:23.657Z,1.10
2023-03-07T20:43:52.423Z,1.10
2023-03-07T20:46:21.581Z,1.10
2023-03-07T20:48:48.854Z,1.10
2023-03-07T20:51:18.396Z,1.10
2023-03-07T20:53:46.535Z,1.10
2023-03-07T20:56:14.008Z,1.10
2023-03-07T20:58:41.366Z,1.10
2023-03-07T21:01:25.470Z,1.10
2023-03-07T21:04:09.993Z,1.10
2023-03-07T21:06:39.435Z,1.20
2023-03-07T21:09:07.650Z,1.10
2023-03-07T21:11:36.046Z,1.10
2023-03-07T21:14:03.332Z,1.10
2023-03-07T21:16:30.645Z,1.10
2023-03-07T21:19:01.279Z,1.10
2023-03-07T21:21:29.502Z,1.10
2023-03-07T21:23:56.497Z,1.10
2023-03-07T21:26:28.777Z,1.20
2023-03-07T21:28:57.328Z,1.10
2023-03-07T21:31:26.696Z,1.20
2023-03-07T21:33:56.352Z,1.20
2023-03-07T21:36:24.630Z,1.10
2023-03-07T21:38:51.423Z,1.20
2023-03-07T21:41:18.484Z,1.10
2023-03-07T21:43:47.415Z,1.20
2023-03-07T21:46:14.827Z,1.10
2023-03-07T21:48:42.018Z,1.20
2023-03-07T21:51:09.425Z,1.10
2023-03-07T21:53:36.360Z,1.10
2023-03-07T21:56:11.683Z,1.10
2023-03-07T21:58:39.463Z,1.10
2023-03-07T22:01:18.052Z,1.10
2023-03-07T22:03:45.299Z,1.10
2023-03-07T22:06:14.720Z,1.10
2023-03-07T22:08:44.236Z,1.10
2023-03-07T22:11:12.417Z,1.10
2023-03-07T22:13:40.634Z,1.10
2023-03-07T22:16:13.489Z,1.10
2023-03-07T22:18:40.409Z,1.00
2023-03-07T22:21:12.280Z,1.00
2023-03-07T22:23:39.426Z,0.90
2023-03-07T22:26:08.259Z,0.90
2023-03-07T22:28:35.409Z,0.90
2023-03-07T22:31:05.018Z,0.90
2023-03-07T22:33:31.878Z,0.90
2023-03-07T22:36:00.808Z,0.90
2023-03-07T22:38:27.641Z,0.80
2023-03-07T22:40:59.447Z,0.80
2023-03-07T22:43:26.240Z,0.80
2023-03-07T22:45:53.193Z,0.90
2023-03-07T22:48:19.971Z,0.80
2023-03-07T22:50:46.822Z,0.80
2023-03-07T22:53:13.863Z,0.80
2023-03-07T22:55:42.495Z,0.80
2023-03-07T22:58:10.716Z,0.80
2023-03-07T23:00:39.821Z,0.80
2023-03-07T23:03:06.767Z,0.80
2023-03-07T23:05:34.119Z,0.80
2023-03-07T23:08:01.548Z,0.70
2023-03-07T23:10:29.441Z,0.70
2023-03-07T23:12:56.744Z,0.70
2023-03-07T23:15:23.631Z,0.70
2023-03-07T23:17:50.644Z,0.70
2023-03-07T23:20:18.034Z,0.70
2023-03-07T23:22:44.974Z,0.70
2023-03-07T23:25:21.185Z,0.70
2023-03-07T23:27:48.065Z,0.60
2023-03-07T23:30:15.389Z,0.60
2023-03-07T23:32:42.199Z,0.70
2023-03-07T23:35:09.587Z,0.70
2023-03-07T23:37:36.372Z,0.60
2023-03-07T23:40:03.364Z,0.60
2023-03-07T23:42:30.201Z,0.60
2023-03-07T23:44:59.973Z,0.60
2023-03-07T23:47:26.760Z,0.60
2023-03-07T23:49:53.546Z,0.60
2023-03-07T23:52:20.296Z,0.50
2023-03-07T23:54:47.204Z,0.50
2023-03-07T23:57:13.951Z,0.50
2023-03-07T23:59:40.765Z,0.40
